Weather History for KPPO - September, 2014

Change the Weather History Date:

Sunday, September 21, 2014

  Actual Average (KVPZ) Record (KVPZ)
Temperature  
Mean Temperature 59 °F 61 °F  
Max Temperature 67 °F 73 °F 91 °F (2010)
Min Temperature 52 °F 50 °F 37 °F (2006)
Degree Days  
Heating Degree Days 6 5  
Month to date heating degree days 53  
Since 1 July heating degree days 70  
Cooling Degree Days 0 1  
Month to date cooling degree days 56  
Year to date cooling degree days 692  
Growing Degree Days 9 (Base 50)    
Moisture  
Dew Point 52 °F    
Average Humidity 80    
Maximum Humidity 100    
Minimum Humidity 64    
Precipitation  
Precipitation 0.04 in 0.10 in 0.64 in (2010)
Month to date precipitation 2.26  
Year to date precipitation 27.80  
Sea Level Pressure  
Sea Level Pressure 29.90 in    
Wind  
Wind Speed 12 mph (NW)    
Max Wind Speed 28 mph    
Max Gust Speed 41 mph    
Visibility 10 miles    
Events Rain    
T = Trace of Precipitation, MM = Missing Value Source: NWS Daily Summary

Daily Weather History Graph

Daily Weather History Graph

Search for Another Location

Airport or City:

Trip Planner

Search our weather history database for the weather conditions in past years. The results will help you decide how hot, cold, wet, or windy it might be!

Date:

Astronomy

Sep. 21, 2014 Rise Set
Actual Time 6:33 AM CDT 6:45 PM CDT
Civil Twilight 6:05 AM CDT 7:13 PM CDT
Nautical Twilight 5:33 AM CDT 7:45 PM CDT
Astronomical Twilight 4:59 AM CDT 8:19 PM CDT
Moon 4:05 AM CDT (9/21) 5:22 PM CDT (9/21)
Length of Visible Light 13h 07m
Length of Day
12h 12m
Waning Crescent, 6% of the Moon is Illuminated
Sep 21
Waning Crescent
Sep 24
New
Oct 1
First Quarter
Oct 8
Full
Oct 15
Last Quarter

Hourly Weather History & Observations

Time (CDT) Temp. Dew Point Humidity Pressure Visibility Wind Dir Wind Speed Gust Speed Precip Events Conditions
12:15 AM 65.5 °F 65.5 °F 100% 29.75 in 5.0 mi SW 9.2 mph - N/A   Overcast
12:35 AM 65.7 °F 65.7 °F 100% 29.74 in 5.0 mi SW 9.2 mph - N/A   Scattered Clouds
12:55 AM 65.7 °F 65.7 °F 100% 29.74 in 5.0 mi WSW 9.2 mph - N/A   Scattered Clouds
1:15 AM - - N/A% 29.72 in 7.0 mi SW 11.5 mph - N/A   Clear
1:35 AM - - N/A% 29.72 in 5.0 mi SW 11.5 mph 16.1 mph N/A   Haze
1:55 AM 66.7 °F 66.7 °F 100% 29.75 in 4.0 mi West 27.6 mph 41.4 mph 0.03 in Rain Heavy Rain
2:15 AM 64.4 °F 63.7 °F 98% 29.72 in 10.0 mi WSW 11.5 mph - 0.01 in Rain Rain
2:35 AM 62.6 °F 61.0 °F 94% 29.72 in 10.0 mi WSW 8.1 mph - 0.01 in   Mostly Cloudy
2:55 AM 62.1 °F 59.4 °F 91% 29.74 in 10.0 mi West 10.4 mph - 0.01 in   Mostly Cloudy
3:15 AM 61.9 °F 61.3 °F 98% 29.74 in 10.0 mi West 9.2 mph - N/A   Scattered Clouds
3:35 AM 63.0 °F 61.5 °F 95% 29.74 in 10.0 mi West 10.4 mph 19.6 mph N/A   Mostly Cloudy
3:55 AM 63.0 °F 60.4 °F 91% 29.75 in 10.0 mi WNW 11.5 mph 20.7 mph N/A   Mostly Cloudy
4:15 AM 63.0 °F 60.3 °F 91% 29.76 in 10.0 mi WNW 12.7 mph 24.2 mph N/A   Mostly Cloudy
4:35 AM 62.6 °F 60.8 °F 94% 29.76 in 10.0 mi WNW 9.2 mph 17.3 mph N/A   Mostly Cloudy
4:55 AM 61.9 °F 59.0 °F 90% 29.76 in 10.0 mi WNW 10.4 mph 19.6 mph N/A   Mostly Cloudy
5:15 AM 60.6 °F 56.8 °F 87% 29.77 in 10.0 mi WNW 8.1 mph 19.6 mph N/A   Clear
5:35 AM 59.9 °F 55.2 °F 84% 29.78 in 10.0 mi WNW 8.1 mph 16.1 mph N/A   Clear
5:55 AM 58.6 °F 55.0 °F 88% 29.79 in 10.0 mi WNW 8.1 mph - N/A   Scattered Clouds
6:15 AM 58.1 °F 54.0 °F 86% 29.79 in 10.0 mi West 9.2 mph 16.1 mph N/A   Scattered Clouds
6:35 AM 57.7 °F 52.7 °F 83% 29.80 in 10.0 mi WNW 9.2 mph - N/A   Clear
6:55 AM 57.2 °F 53.2 °F 87% 29.80 in 10.0 mi West 11.5 mph 17.3 mph N/A   Clear
7:15 AM 57.2 °F 52.9 °F 85% 29.80 in 10.0 mi West 11.5 mph 17.3 mph N/A   Clear
7:35 AM 57.4 °F 53.6 °F 87% 29.80 in 10.0 mi West 10.4 mph - N/A   Clear
7:55 AM 58.1 °F 54.1 °F 87% 29.81 in 10.0 mi West 11.5 mph - N/A   Clear
8:15 AM 58.8 °F 53.2 °F 82% 29.80 in 10.0 mi West 11.5 mph 17.3 mph N/A   Clear
8:35 AM 59.2 °F 52.5 °F 79% 29.81 in 10.0 mi West 11.5 mph 21.9 mph N/A   Scattered Clouds
8:55 AM 59.5 °F 51.1 °F 74% 29.81 in 10.0 mi WNW 11.5 mph 24.2 mph N/A   Mostly Cloudy
9:15 AM 59.9 °F 51.1 °F 73% 29.82 in 10.0 mi West 13.8 mph 21.9 mph N/A   Mostly Cloudy
9:35 AM 59.5 °F 50.4 °F 72% 29.82 in 10.0 mi WNW 16.1 mph 24.2 mph N/A   Mostly Cloudy
9:55 AM 60.1 °F 51.1 °F 72% 29.82 in 10.0 mi WNW 13.8 mph 20.7 mph N/A   Mostly Cloudy
10:15 AM 59.9 °F 49.8 °F 69% 29.83 in 10.0 mi WNW 10.4 mph 24.2 mph N/A   Overcast
10:35 AM 59.5 °F 50.2 °F 71% 29.84 in 10.0 mi WNW 11.5 mph 19.6 mph N/A   Overcast
10:55 AM 59.4 °F 50.0 °F 71% 29.85 in 10.0 mi WNW 13.8 mph 23.0 mph N/A   Overcast
11:15 AM 59.0 °F 49.3 °F 70% 29.86 in 10.0 mi WNW 11.5 mph 19.6 mph N/A   Overcast
11:35 AM 59.4 °F 50.2 °F 72% 29.87 in 10.0 mi WNW 15.0 mph 20.7 mph N/A   Overcast
11:55 AM 59.4 °F 50.0 °F 71% 29.88 in 10.0 mi NW 16.1 mph 26.5 mph N/A   Overcast
12:15 PM 58.8 °F 50.2 °F 73% 29.89 in 10.0 mi NW 16.1 mph 29.9 mph N/A   Overcast
12:35 PM 59.4 °F 50.4 °F 72% 29.90 in 10.0 mi NW 19.6 mph 24.2 mph N/A   Overcast
12:55 PM 60.8 °F 50.5 °F 69% 29.90 in 10.0 mi NW 16.1 mph 25.3 mph N/A   Overcast
1:15 PM 61.2 °F 50.7 °F 69% 29.90 in 10.0 mi NW 15.0 mph 25.3 mph N/A   Mostly Cloudy
1:35 PM 61.7 °F 51.4 °F 69% 29.91 in 10.0 mi NW 16.1 mph 25.3 mph N/A   Overcast
1:55 PM 60.6 °F 51.3 °F 71% 29.92 in 10.0 mi NW 18.4 mph 32.2 mph N/A   Overcast
2:15 PM 58.3 °F 54.0 °F 86% 29.93 in 7.0 mi NNW 17.3 mph 23.0 mph N/A   Light Drizzle
2:35 PM 60.1 °F 51.3 °F 73% 29.93 in 10.0 mi NNW 23.0 mph 28.8 mph N/A   Overcast
2:55 PM 59.2 °F 50.2 °F 72% 29.94 in 10.0 mi NNW 18.4 mph 25.3 mph N/A   Overcast
3:15 PM 59.9 °F 48.7 °F 67% 29.95 in 10.0 mi North 23.0 mph 28.8 mph N/A   Overcast
3:35 PM 61.2 °F 48.7 °F 64% 29.95 in 10.0 mi North 24.2 mph 32.2 mph N/A   Overcast
3:55 PM 60.1 °F 48.6 °F 66% 29.96 in 10.0 mi North 20.7 mph 29.9 mph N/A   Mostly Cloudy
4:15 PM 59.5 °F 49.6 °F 70% 29.96 in 10.0 mi NNW 18.4 mph 26.5 mph N/A   Mostly Cloudy
4:35 PM 58.5 °F 49.1 °F 71% 29.98 in 10.0 mi North 19.6 mph 25.3 mph N/A   Overcast
4:55 PM 58.1 °F 49.1 °F 72% 29.99 in 10.0 mi North 17.3 mph 24.2 mph N/A   Overcast
5:15 PM 57.6 °F 49.3 °F 74% 29.99 in 10.0 mi North 17.3 mph 23.0 mph N/A   Overcast
5:35 PM 57.4 °F 49.1 °F 74% 30.00 in 10.0 mi North 12.7 mph 18.4 mph N/A   Overcast
5:55 PM 57.2 °F 48.6 °F 73% 30.01 in 10.0 mi North 11.5 mph 20.7 mph N/A   Overcast
6:15 PM 56.7 °F 48.6 °F 74% 30.02 in 10.0 mi North 15.0 mph 18.4 mph N/A   Overcast
6:35 PM 56.5 °F 48.6 °F 75% 30.03 in 10.0 mi North 13.8 mph 19.6 mph N/A   Overcast
6:55 PM 56.1 °F 48.9 °F 77% 30.04 in 10.0 mi North 13.8 mph 17.3 mph N/A   Overcast
7:15 PM 55.6 °F 49.1 °F 79% 30.05 in 10.0 mi North 8.1 mph - N/A   Mostly Cloudy
7:35 PM 55.8 °F 49.1 °F 78% 30.06 in 10.0 mi North 10.4 mph - N/A   Overcast
7:55 PM 55.6 °F 48.4 °F 77% 30.08 in 10.0 mi North 17.3 mph 23.0 mph N/A   Overcast
8:15 PM 54.9 °F 48.0 °F 78% 30.08 in 10.0 mi North 16.1 mph 23.0 mph N/A   Mostly Cloudy
8:35 PM 54.1 °F 47.7 °F 79% 30.08 in 10.0 mi North 13.8 mph - N/A   Scattered Clouds
8:55 PM 53.8 °F 48.2 °F 81% 30.09 in 10.0 mi North 15.0 mph 20.7 mph N/A   Scattered Clouds
9:15 PM 53.6 °F 48.2 °F 82% 30.10 in 10.0 mi North 11.5 mph 17.3 mph N/A   Scattered Clouds
9:35 PM 52.9 °F 47.7 °F 82% 30.10 in 10.0 mi North 10.4 mph - N/A   Clear
9:55 PM 53.1 °F 47.8 °F 82% 30.10 in 10.0 mi North 10.4 mph - N/A   Scattered Clouds
10:15 PM 53.1 °F 46.6 °F 79% 30.11 in 10.0 mi North 9.2 mph - N/A   Scattered Clouds
10:35 PM 52.5 °F 46.4 °F 80% 30.11 in 10.0 mi North 6.9 mph - N/A   Clear
10:55 PM 52.2 °F 46.4 °F 81% 30.11 in 10.0 mi North 10.4 mph - N/A   Clear
11:15 PM 52.0 °F 46.4 °F 81% 30.11 in 10.0 mi North 8.1 mph - N/A   Scattered Clouds
11:35 PM 52.7 °F 45.9 °F 78% 30.12 in 10.0 mi North 9.2 mph - N/A   Scattered Clouds
11:55 PM 52.7 °F 45.3 °F 76% 30.12 in 10.0 mi North 10.4 mph - N/A   Scattered Clouds